Time;durP1;ratioP1;P1;durP2;ratioP2;P2;SDS_P1;SDS_P2;PMS_P1;PMS_P2;Temp;Humidity;BMP_temperature;BMP_pressure;BME280_temperature;BME280_humidity;BME280_pressure;Samples;Min_cycle;Max_cycle;Signal;HPM_P1;HPM_P2
2022/06/02 00:00:26;;;;;;;7.30;2.70;;;;;;;23.04;62.14;99742.34;1649294;84;21869;-69
2022/06/02 00:03:21;;;;;;;3.30;2.80;;;;;;;23.07;62.83;99739.85;1649208;84;20994;-70
2022/06/02 00:06:11;;;;;;;2.80;2.55;;;;;;;23.14;63.00;99742.31;1649616;84;21039;-69
2022/06/02 00:08:59;;;;;;;7.70;2.92;;;;;;;23.05;63.23;99736.47;1647605;84;21542;-68
2022/06/02 00:11:48;;;;;;;4.53;2.58;;;;;;;23.11;63.32;99747.95;1642473;84;21452;-69
2022/06/02 00:14:29;;;;;;;2.60;2.40;;;;;;;22.78;63.99;99755.95;1652120;84;21646;-68
2022/06/02 00:17:29;;;;;;;3.40;2.22;;;;;;;22.70;64.68;99759.34;1638205;84;21034;-69
2022/06/02 00:20:02;;;;;;;2.80;2.17;;;;;;;22.68;65.06;99759.97;1642395;85;21602;-69
2022/06/02 00:23:07;;;;;;;4.33;2.60;;;;;;;22.59;65.37;99767.52;1640978;84;21495;-68
2022/06/02 00:25:41;;;;;;;5.50;3.12;;;;;;;22.52;65.30;99759.17;1634545;85;21515;-68
2022/06/02 00:28:26;;;;;;;5.17;3.05;;;;;;;22.37;65.44;99754.71;1635815;84;21871;-68
2022/06/02 00:31:14;;;;;;;3.90;2.67;;;;;;;22.35;65.52;99753.50;1643878;85;21492;-70
2022/06/02 00:34:08;;;;;;;3.00;2.33;;;;;;;22.66;64.97;99752.54;1649755;84;21448;-68
2022/06/02 00:36:54;;;;;;;2.80;2.60;;;;;;;22.78;64.17;99755.45;1636739;84;21010;-69
2022/06/02 00:39:21;;;;;;;3.15;2.80;;;;;;;22.79;63.74;99757.13;1643850;84;21467;-69
2022/06/02 00:42:00;;;;;;;2.87;2.57;;;;;;;22.81;63.38;99750.28;1622544;86;21969;-69
2022/06/02 00:44:41;;;;;;;2.95;2.40;;;;;;;22.68;64.05;99747.41;1652985;84;21573;-68
2022/06/02 00:47:33;;;;;;;4.05;2.22;;;;;;;22.78;63.68;99754.11;1639535;84;21700;-69
2022/06/02 00:50:41;;;;;;;3.62;2.50;;;;;;;22.83;63.38;99757.22;1642178;85;21507;-68
2022/06/02 00:57:49;;;;;;;11.38;2.92;;;;;;;23.14;61.10;99762.42;1760121;79;21435;-69
2022/06/02 01:00:24;;;;;;;4.92;2.30;;;;;;;23.18;60.60;99753.09;1712348;80;21907;-68
2022/06/02 01:03:17;;;;;;;2.85;2.17;;;;;;;23.26;59.97;99768.00;1752718;79;21446;-73
2022/06/02 01:06:04;;;;;;;3.33;2.52;;;;;;;23.23;59.52;99769.62;1760881;80;21484;-67
2022/06/02 01:08:52;;;;;;;4.77;2.43;;;;;;;23.10;59.49;99765.89;1761090;79;21537;-69
2022/06/02 01:11:31;;;;;;;;;;;;;;;22.93;59.45;99771.95;1764376;79;21565;-67
2022/06/02 01:14:46;;;;;;;4.05;2.42;;;;;;;22.84;58.90;99784.36;1767967;79;22264;-69
2022/06/02 01:17:24;;;;;;;4.65;2.35;;;;;;;22.89;58.78;99790.15;1765182;79;21048;-68
2022/06/02 01:20:22;;;;;;;4.35;2.77;;;;;;;22.85;59.68;99808.84;1767189;80;21419;-68
2022/06/02 01:23:21;;;;;;;3.45;2.85;;;;;;;22.28;61.74;99786.34;1771957;79;21022;-67
2022/06/02 01:26:32;;;;;;;3.60;2.77;;;;;;;22.46;62.42;99784.69;1765866;80;21452;-68
2022/06/02 01:29:27;;;;;;;3.98;2.87;;;;;;;22.65;62.23;99785.70;1763403;79;21762;-69
2022/06/02 01:32:04;;;;;;;3.52;3.22;;;;;;;22.51;62.95;99774.91;1767105;80;21545;-68
2022/06/02 01:35:01;;;;;;;4.53;3.70;;;;;;;22.40;62.96;99777.21;1769196;79;21487;-69
2022/06/02 01:37:37;;;;;;;5.00;2.98;;;;;;;22.35;62.98;99777.61;1761196;79;21521;-69
2022/06/02 01:40:31;;;;;;;3.05;2.77;;;;;;;22.31;63.54;99771.34;1763385;80;21486;-67
2022/06/02 01:43:13;;;;;;;2.90;2.70;;;;;;;22.29;63.92;99777.33;1756911;79;21853;-70
2022/06/02 01:46:05;;;;;;;4.08;3.10;;;;;;;22.20;64.31;99767.41;1750842;80;21513;-70
2022/06/02 01:48:50;;;;;;;3.42;3.10;;;;;;;22.16;64.28;99764.16;1760187;80;21427;-70
2022/06/02 01:51:35;;;;;;;4.47;3.00;;;;;;;21.70;65.61;99766.41;1757330;79;21647;-70
2022/06/02 01:54:41;;;;;;;4.28;3.12;;;;;;;21.65;66.00;99771.80;1755237;80;21510;-72
2022/06/02 01:57:39;;;;;;;3.93;2.23;;;;;;;21.67;66.61;99766.66;1743536;80;21916;-68
2022/06/02 02:00:13;;;;;;;3.17;2.55;;;;;;;21.89;65.75;99768.80;1750002;80;21566;-68
2022/06/02 02:02:59;;;;;;;4.15;3.47;;;;;;;22.05;65.00;99772.30;1746995;80;21583;-68
2022/06/02 02:06:08;;;;;;;3.90;3.00;;;;;;;22.20;64.32;99770.92;1753974;80;21436;-68
2022/06/02 02:09:07;;;;;;;3.90;2.92;;;;;;;22.27;63.93;99774.78;1745604;80;21407;-69
2022/06/02 02:11:46;;;;;;;3.20;2.90;;;;;;;22.33;63.53;99773.39;1746069;80;22240;-68
2022/06/02 02:14:27;;;;;;;5.28;2.87;;;;;;;22.43;63.21;99771.55;1743129;80;21535;-68
2022/06/02 02:17:20;;;;;;;3.00;2.65;;;;;;;22.45;63.13;99768.28;1745052;80;21474;-68
2022/06/02 02:20:14;;;;;;;3.60;2.50;;;;;;;22.48;63.14;99764.46;1759711;80;21566;-68
2022/06/02 02:22:56;;;;;;;2.83;2.60;;;;;;;22.47;63.24;99771.66;1748781;80;21586;-68
2022/06/02 02:26:11;;;;;;;2.92;2.70;;;;;;;22.44;63.02;99775.11;1745902;80;22203;-68
2022/06/02 02:28:52;;;;;;;4.20;2.62;;;;;;;22.07;64.54;99770.33;1723787;80;20933;-69
2022/06/02 02:31:40;;;;;;;5.15;2.90;;;;;;;22.15;64.84;99774.50;1753776;80;21599;-67
2022/06/02 02:34:31;;;;;;;7.85;3.02;;;;;;;22.21;64.80;99771.77;1745720;80;21056;-67
2022/06/02 02:37:33;;;;;;;3.30;2.87;;;;;;;22.51;64.00;99775.75;1708285;82;21412;-67
2022/06/02 02:40:30;;;;;;;2.98;2.77;;;;;;;22.58;63.29;99785.39;1758391;80;21935;-69
2022/06/02 02:43:18;;;;;;;2.92;2.60;;;;;;;22.53;63.85;99781.81;1741414;80;21427;-68
2022/06/02 02:46:10;;;;;;;4.60;3.22;;;;;;;22.57;63.66;99786.91;1746060;80;20974;-69
2022/06/02 02:49:07;;;;;;;4.58;3.05;;;;;;;22.64;63.79;99784.86;1746023;80;21428;-70
2022/06/02 02:52:04;;;;;;;5.62;2.95;;;;;;;22.64;63.43;99788.02;1741842;80;21436;-68
2022/06/02 02:55:03;;;;;;;3.10;2.67;;;;;;;22.46;63.63;99792.72;1738597;80;21808;-68
2022/06/02 02:57:47;;;;;;;2.55;2.35;;;;;;;22.45;63.74;99790.17;1752201;80;21543;-68
2022/06/02 03:00:25;;;;;;;2.85;2.60;;;;;;;22.78;62.89;99783.59;1674496;82;21628;-68
2022/06/02 03:03:23;;;;;;;3.65;2.70;;;;;;;22.52;63.31;99796.68;1708925;82;21097;-68
2022/06/02 03:06:26;;;;;;;2.90;2.70;;;;;;;22.37;63.47;99792.20;1716193;80;21077;-68
2022/06/02 03:09:13;;;;;;;3.90;2.75;;;;;;;22.35;63.58;99795.52;1740428;80;21888;-68
2022/06/02 03:12:14;;;;;;;3.10;2.47;;;;;;;22.64;62.67;99794.71;1750529;80;21582;-69
2022/06/02 03:15:09;;;;;;;3.80;2.87;;;;;;;22.75;62.65;99798.59;1746212;80;21503;-69
2022/06/02 03:17:52;;;;;;;4.30;3.42;;;;;;;22.78;62.56;99803.69;1751278;80;21426;-70
2022/06/02 03:20:47;;;;;;;4.42;2.77;;;;;;;22.46;63.78;99814.16;1742841;80;21569;-68
2022/06/02 03:23:38;;;;;;;5.37;3.08;;;;;;;22.73;63.14;99820.20;1741490;80;21950;-69
2022/06/02 03:26:28;;;;;;;4.62;2.98;;;;;;;22.59;63.76;99824.62;1751758;80;21084;-70
2022/06/02 03:29:38;;;;;;;3.83;3.10;;;;;;;22.80;63.44;99831.70;1753051;80;21530;-68
2022/06/02 03:32:36;;;;;;;3.50;3.20;;;;;;;22.86;63.13;99835.16;1740488;80;21482;-68
2022/06/02 03:35:31;;;;;;;3.45;3.17;;;;;;;22.97;62.84;99833.67;1734735;80;21709;-69
2022/06/02 03:38:28;;;;;;;3.33;2.80;;;;;;;22.98;62.66;99838.06;1759883;80;21455;-68
2022/06/02 03:41:37;;;;;;;4.20;2.95;;;;;;;22.70;63.46;99843.25;1758879;80;21570;-70
2022/06/02 03:44:36;;;;;;;3.58;3.27;;;;;;;22.86;63.49;99844.53;1745354;80;21463;-69
2022/06/02 03:47:20;;;;;;;4.00;3.10;;;;;;;23.00;62.74;99836.56;1714626;82;21443;-70
2022/06/02 03:50:16;;;;;;;3.58;3.27;;;;;;;23.27;61.73;99835.39;1743066;80;21430;-67
2022/06/02 03:52:59;;;;;;;3.90;3.33;;;;;;;22.98;62.54;99829.16;1752996;80;21559;-71
2022/06/02 03:55:38;;;;;;;3.50;2.98;;;;;;;23.17;62.13;99837.72;1740473;80;21034;-67
2022/06/02 03:58:36;;;;;;;4.22;2.90;;;;;;;23.61;60.69;99827.36;1750033;80;21539;-68
2022/06/02 04:01:09;;;;;;;4.87;3.40;;;;;;;23.78;59.82;99830.63;1751580;80;21456;-70
2022/06/02 04:04:09;;;;;;;4.40;3.47;;;;;;;23.92;59.08;99830.66;1747756;80;20965;-67
2022/06/02 04:07:00;;;;;;;3.62;3.37;;;;;;;23.97;59.34;99827.05;1730692;80;21872;-68
2022/06/02 04:09:42;;;;;;;5.08;3.30;;;;;;;23.87;60.21;99837.83;1746675;80;21506;-68
2022/06/02 04:15:38;;;;;;;5.78;4.35;;;;;;;24.56;58.47;99840.22;1753166;80;21072;-69
2022/06/02 04:18:36;;;;;;;6.53;5.80;;;;;;;24.58;58.27;99840.43;1701420;82;21551;-69
2022/06/02 04:21:37;;;;;;;6.90;5.95;;;;;;;24.54;58.06;99842.21;1749976;80;21758;-68
2022/06/02 04:24:33;;;;;;;5.58;5.08;;;;;;;24.59;57.51;99836.73;1738031;80;21504;-69
2022/06/02 04:27:23;;;;;;;5.50;4.42;;;;;;;24.58;57.66;99839.56;1752565;80;21061;-69
2022/06/02 04:30:17;;;;;;;8.78;4.80;;;;;;;24.48;57.28;99844.97;1743948;80;21559;-68
2022/06/02 04:33:12;;;;;;;8.40;4.40;;;;;;;24.52;57.47;99842.86;1732661;80;21536;-68
2022/06/02 04:36:06;;;;;;;5.90;4.65;;;;;;;24.51;57.24;99842.00;1747574;80;21806;-70
2022/06/02 04:39:06;;;;;;;5.33;4.37;;;;;;;24.65;57.37;99839.31;1736996;80;21428;-68
2022/06/02 04:41:44;;;;;;;7.97;4.70;;;;;;;24.66;57.68;99831.10;1752285;80;20951;-68
2022/06/02 04:44:32;;;;;;;5.67;5.08;;;;;;;24.66;57.68;99831.10;1747371;80;21531;-71
2022/06/02 04:47:19;;;;;;;7.65;4.97;;;;;;;24.89;56.82;99831.16;1741807;80;21567;-69
2022/06/02 04:50:32;;;;;;;5.53;4.87;;;;;;;25.00;56.32;99826.39;1738200;80;21839;-68
2022/06/02 04:53:20;;;;;;;7.92;5.40;;;;;;;25.04;56.20;99818.86;1753811;80;21752;-69
2022/06/02 04:56:02;;;;;;;7.42;5.22;;;;;;;25.35;55.52;99812.56;1752574;80;21464;-69
2022/06/02 04:58:52;;;;;;;4.78;4.00;;;;;;;25.48;55.33;99813.50;1755683;80;21838;-68
2022/06/02 05:01:37;;;;;;;4.72;4.22;;;;;;;25.70;54.49;99817.52;1748157;80;21653;-68
2022/06/02 05:04:43;;;;;;;7.65;4.03;;;;;;;25.85;54.37;99813.73;1751850;80;21995;-68
2022/06/02 05:07:40;;;;;;;5.87;4.25;;;;;;;25.85;54.37;99813.73;1756075;80;21570;-68
2022/06/02 05:10:12;;;;;;;4.03;3.62;;;;;;;25.94;53.17;99818.19;1698932;82;21629;-69
2022/06/02 05:12:49;;;;;;;4.85;3.67;;;;;;;26.15;52.33;99807.00;1765785;80;21602;-70
2022/06/02 05:15:44;;;;;;;4.75;3.55;;;;;;;26.15;52.33;99807.00;1758718;80;21505;-69
2022/06/02 05:18:22;;;;;;;7.75;4.10;;;;;;;26.23;52.71;99809.72;1749233;80;21898;-69
2022/06/02 05:21:23;;;;;;;4.30;3.70;;;;;;;26.50;52.90;99811.81;1724706;80;21649;-69
2022/06/02 05:24:19;;;;;;;5.00;4.50;;;;;;;26.59;52.21;99814.03;1752397;80;21081;-60
2022/06/02 05:27:21;;;;;;;5.72;5.03;;;;;;;26.60;51.63;99811.21;1685446;83;21453;-62
2022/06/02 05:30:15;;;;;;;5.47;4.55;;;;;;;26.31;51.89;99806.20;1677452;83;21536;-61
2022/06/02 05:33:15;;;;;;;6.08;5.37;;;;;;;26.00;52.90;99804.07;1737700;80;21411;-62
2022/06/02 05:36:22;;;;;;;6.15;5.37;;;;;;;25.91;53.28;99797.44;1758610;80;21424;-60
2022/06/02 05:39:06;;;;;;;6.92;5.90;;;;;;;25.80;53.65;99807.98;1748519;80;21467;-60
2022/06/02 05:41:47;;;;;;;10.00;6.03;;;;;;;25.87;54.36;99807.69;1750944;80;21167;-59
2022/06/02 05:45:01;;;;;;;7.58;5.37;;;;;;;25.94;53.84;99812.80;1750065;80;21616;-58
2022/06/02 05:48:05;;;;;;;8.68;6.00;;;;;;;26.13;53.23;99800.94;1717878;80;21774;-59
2022/06/02 05:50:44;;;;;;;6.22;5.25;;;;;;;26.13;53.23;99800.94;1757476;80;21178;-58
2022/06/02 05:53:39;;;;;;;7.87;5.10;;;;;;;26.14;53.04;99803.11;1756317;80;21092;-60
2022/06/02 05:56:39;;;;;;;6.25;4.75;;;;;;;26.12;52.84;99802.44;1752940;80;21971;-58
2022/06/02 05:59:48;;;;;;;4.40;4.05;;;;;;;26.18;53.06;99800.43;1754325;80;21676;-64
2022/06/02 06:02:43;;;;;;;4.45;3.90;;;;;;;26.31;52.94;99794.07;1753812;80;21871;-60
2022/06/02 06:05:24;;;;;;;4.45;3.85;;;;;;;26.40;53.99;99800.34;1737124;80;21574;-59
2022/06/02 06:08:20;;;;;;;4.50;3.83;;;;;;;26.40;53.99;99800.34;1752527;80;21100;-59
2022/06/02 06:11:27;;;;;;;6.40;4.17;;;;;;;26.61;53.43;99803.45;1757246;80;21582;-60
2022/06/02 06:14:14;;;;;;;5.53;3.90;;;;;;;26.76;53.09;99805.50;1753121;80;21641;-57
2022/06/02 06:17:02;;;;;;;5.17;4.22;;;;;;;26.82;51.83;99813.43;1757294;80;21877;-58
2022/06/02 06:19:47;;;;;;;4.20;3.80;;;;;;;26.75;51.45;99807.36;1756444;80;21499;-58
2022/06/02 06:22:43;;;;;;;3.75;3.40;;;;;;;26.83;51.27;99814.62;1751418;80;21615;-61
2022/06/02 06:25:49;;;;;;;4.53;3.33;;;;;;;26.87;51.41;99808.39;1752729;80;21053;-61
2022/06/02 06:28:18;;;;;;;3.85;2.67;;;;;;;26.88;50.45;99810.06;1753708;80;21539;-61
2022/06/02 06:31:14;;;;;;;2.85;2.65;;;;;;;26.92;49.44;99822.23;1762729;80;21849;-64
2022/06/02 06:34:10;;;;;;;3.83;2.85;;;;;;;27.00;49.05;99816.83;1748913;80;21460;-60
2022/06/02 06:37:17;;;;;;;3.22;2.90;;;;;;;27.00;49.05;99816.83;1732867;80;21459;-61
2022/06/02 06:40:09;;;;;;;3.35;2.83;;;;;;;27.15;48.66;99816.48;1699120;83;21522;-60
2022/06/02 06:42:42;;;;;;;3.47;3.17;;;;;;;26.99;48.31;99821.39;1757815;80;21574;-61
2022/06/02 06:45:45;;;;;;;4.37;3.00;;;;;;;26.99;48.31;99821.39;1761293;80;21825;-60
2022/06/02 06:48:25;;;;;;;4.87;2.75;;;;;;;26.96;48.64;99827.63;1760966;80;21577;-61
2022/06/02 06:51:03;;;;;;;3.12;2.80;;;;;;;27.03;48.16;99828.64;1755611;80;21446;-62
2022/06/02 06:54:02;;;;;;;4.53;2.52;;;;;;;27.08;47.08;99825.43;1753061;80;21526;-60
2022/06/02 06:56:34;;;;;;;4.30;3.00;;;;;;;27.06;46.86;99836.38;1714830;81;21455;-60
2022/06/02 06:59:23;;;;;;;3.62;3.20;;;;;;;27.18;47.26;99837.75;1730262;80;21934;-60
2022/06/02 07:02:20;;;;;;;5.78;2.85;;;;;;;27.23;47.00;99838.58;1724107;81;21432;-59
2022/06/02 07:05:11;;;;;;;6.03;3.00;;;;;;;27.35;47.09;99837.76;1735007;81;21459;-61
2022/06/02 07:08:22;;;;;;;3.50;3.20;;;;;;;27.79;46.02;99833.32;1727827;81;21447;-60
2022/06/02 07:14:41;;;;;;;3.02;2.83;;;;;;;28.28;45.05;99835.88;1730412;82;21954;-59
2022/06/02 07:17:19;;;;;;;4.15;2.92;;;;;;;28.28;45.05;99835.88;1718584;81;21549;-60
2022/06/02 07:20:05;;;;;;;4.80;3.05;;;;;;;28.38;44.23;99841.58;1735395;81;21419;-59
2022/06/02 07:22:42;;;;;;;3.40;2.77;;;;;;;28.55;43.81;99841.86;1734147;81;20974;-59
2022/06/02 07:25:32;;;;;;;3.50;2.62;;;;;;;28.47;44.02;99835.13;1729694;80;21752;-59
2022/06/02 07:28:16;;;;;;;2.65;2.45;;;;;;;28.47;43.70;99840.53;1734387;80;21730;-59
2022/06/02 07:30:55;;;;;;;4.47;3.00;;;;;;;28.62;43.00;99842.00;1699139;81;21566;-59
2022/06/02 07:33:45;;;;;;;7.42;3.02;;;;;;;28.64;43.23;99842.14;1736787;80;21593;-59
2022/06/02 07:36:38;;;;;;;3.55;2.98;;;;;;;28.68;43.22;99840.77;1737388;80;21042;-63
2022/06/02 07:39:16;;;;;;;3.00;2.80;;;;;;;28.78;42.96;99849.16;1706471;81;21447;-63
2022/06/02 07:41:58;;;;;;;4.47;3.35;;;;;;;28.70;43.45;99854.95;1735426;80;21889;-59
2022/06/02 07:44:49;;;;;;;4.35;3.25;;;;;;;28.67;43.91;99860.73;1725800;80;21605;-61
2022/06/02 07:47:33;;;;;;;3.22;2.92;;;;;;;28.71;43.95;99859.88;1729934;80;21848;-60
2022/06/02 07:50:24;;;;;;;4.12;3.72;;;;;;;28.70;43.91;99858.17;1733821;81;21533;-59
2022/06/02 07:53:33;;;;;;;3.30;3.00;;;;;;;28.76;43.74;99863.37;1725393;81;21577;-59
2022/06/02 07:56:40;;;;;;;4.03;3.60;;;;;;;28.77;44.39;99859.15;1740361;80;21848;-59
2022/06/02 07:59:37;;;;;;;;;;;;;;;28.93;43.67;99859.05;1755639;80;21585;-59
2022/06/02 08:02:21;;;;;;;6.03;3.87;;;;;;;28.97;43.17;99860.02;1748795;80;20416;-60
2022/06/02 08:05:14;;;;;;;4.00;3.70;;;;;;;28.96;43.04;99863.25;1747497;80;21707;-61
2022/06/02 08:07:55;;;;;;;9.00;4.10;;;;;;;29.05;43.48;99866.75;1746054;80;21506;-60
2022/06/02 08:10:47;;;;;;;4.40;4.00;;;;;;;29.18;42.88;99872.44;1745417;80;20971;-60
2022/06/02 08:13:33;;;;;;;4.20;3.80;;;;;;;28.95;43.80;99870.19;1745435;80;21519;-60
2022/06/02 08:16:29;;;;;;;8.05;3.35;;;;;;;29.09;43.62;99874.84;1743355;80;21537;-61
2022/06/02 08:19:14;;;;;;;4.20;3.77;;;;;;;29.24;43.28;99879.83;1746984;80;21543;-61
2022/06/02 08:21:46;;;;;;;4.55;3.65;;;;;;;29.41;43.12;99873.77;1714090;82;21498;-61
2022/06/02 08:24:48;;;;;;;5.35;3.55;;;;;;;29.52;43.59;99869.78;1739583;80;21805;-60
2022/06/02 08:27:38;;;;;;;3.47;3.20;;;;;;;29.63;42.97;99872.05;1747284;80;21585;-60
2022/06/02 08:30:23;;;;;;;4.03;2.92;;;;;;;29.64;41.81;99869.66;1723714;81;21443;-67
2022/06/02 08:32:58;;;;;;;4.17;3.47;;;;;;;29.70;41.58;99868.07;1744795;80;21751;-60
2022/06/02 08:35:44;;;;;;;4.12;3.83;;;;;;;29.80;42.53;99875.47;1749505;80;21486;-60
2022/06/02 08:38:49;;;;;;;3.70;3.40;;;;;;;29.93;42.06;99870.73;1696873;82;21995;-60
2022/06/02 08:41:52;;;;;;;8.13;3.58;;;;;;;29.92;42.08;99877.20;1745671;80;21556;-60
2022/06/02 08:44:56;;;;;;;4.78;4.05;;;;;;;30.25;41.23;99875.45;1744326;80;21528;-60
2022/06/02 08:47:54;;;;;;;5.42;3.67;;;;;;;29.96;41.69;99876.32;1753404;80;21632;-62
2022/06/02 08:50:36;;;;;;;4.42;4.03;;;;;;;29.79;42.37;99877.00;1749051;80;21518;-62
2022/06/02 08:53:23;;;;;;;4.42;3.75;;;;;;;29.75;42.71;99872.47;1751303;80;21805;-60
2022/06/02 08:56:27;;;;;;;6.25;3.77;;;;;;;29.79;42.57;99871.06;1739084;80;21526;-60
2022/06/02 08:59:31;;;;;;;5.15;3.75;;;;;;;29.88;43.05;99877.25;1751553;80;21953;-59
2022/06/02 09:02:20;;;;;;;3.87;3.47;;;;;;;30.04;42.81;99871.63;1755180;80;21519;-61
2022/06/02 09:05:27;;;;;;;5.47;3.37;;;;;;;30.07;42.49;99866.36;1754826;80;21467;-61
2022/06/02 09:08:22;;;;;;;4.80;3.67;;;;;;;30.11;42.07;99866.31;1747410;80;21413;-60
2022/06/02 09:11:33;;;;;;;3.70;3.40;;;;;;;30.26;41.70;99873.09;1750515;80;21306;-60
2022/06/02 09:14:37;;;;;;;4.87;3.62;;;;;;;30.36;41.27;99870.95;1747177;80;21542;-60
2022/06/02 09:17:36;;;;;;;3.95;3.65;;;;;;;30.28;40.82;99866.95;1756533;80;21467;-60
2022/06/02 09:20:14;;;;;;;4.60;2.92;;;;;;;30.22;41.33;99866.36;1683749;83;21507;-60
2022/06/02 09:23:12;;;;;;;4.00;3.05;;;;;;;30.31;41.96;99861.66;1745922;80;21762;-59
2022/06/02 09:26:18;;;;;;;3.37;2.90;;;;;;;30.47;41.74;99862.84;1759136;80;21408;-59
2022/06/02 09:29:24;;;;;;;5.08;3.05;;;;;;;30.59;41.09;99865.91;1756347;80;20998;-60
2022/06/02 09:32:28;;;;;;;3.62;2.90;;;;;;;30.72;40.82;99866.58;1755076;80;21483;-59
2022/06/02 09:35:18;;;;;;;5.30;2.65;;;;;;;30.88;40.12;99864.99;1753401;80;21529;-60
2022/06/02 09:38:09;;;;;;;3.00;2.80;;;;;;;30.88;39.97;99863.63;1754058;80;22107;-61
2022/06/02 09:40:50;;;;;;;5.05;3.05;;;;;;;30.98;38.96;99864.17;1755546;80;20962;-60
2022/06/02 09:43:47;;;;;;;3.67;2.40;;;;;;;31.05;39.43;99860.19;1670518;83;21498;-62
2022/06/02 09:46:48;;;;;;;3.90;2.50;;;;;;;31.03;38.10;99861.73;1757494;80;21628;-60
2022/06/02 09:49:36;;;;;;;3.98;2.65;;;;;;;31.18;37.61;99858.12;1761885;80;21056;-59
2022/06/02 09:52:44;;;;;;;3.17;2.87;;;;;;;31.20;37.40;99858.77;1713485;82;22121;-59
2022/06/02 09:55:28;;;;;;;2.40;2.20;;;;;;;31.26;37.41;99851.19;1752363;80;21524;-60
2022/06/02 09:58:02;;;;;;;2.47;2.27;;;;;;;31.19;37.29;99846.20;1746468;80;21662;-60
2022/06/02 10:00:48;;;;;;;3.42;2.70;;;;;;;31.23;37.53;99842.92;1761231;80;21531;-58
2022/06/02 10:03:44;;;;;;;4.33;2.95;;;;;;;31.33;38.42;99833.60;1753389;80;21509;-59
2022/06/02 10:06:52;;;;;;;3.92;2.62;;;;;;;31.42;37.23;99833.78;1759717;80;21727;-60
2022/06/02 10:10:01;;;;;;;2.98;2.72;;;;;;;31.43;37.37;99833.55;1765200;80;21420;-59
2022/06/02 10:13:09;;;;;;;3.40;3.10;;;;;;;31.46;36.81;99827.41;1749290;80;21671;-59
2022/06/02 10:16:25;;;;;;;3.22;2.92;;;;;;;31.39;37.42;99820.05;1757991;80;21576;-64
2022/06/02 10:18:59;;;;;;;3.45;3.15;;;;;;;31.31;37.45;99813.95;1753019;80;21478;-59
2022/06/02 10:21:52;;;;;;;6.03;3.10;;;;;;;31.27;38.28;99813.99;1757306;80;21947;-59
2022/06/02 10:25:15;;;;;;;3.65;2.95;;;;;;;31.40;38.24;99814.09;1763661;80;21416;-59
2022/06/02 10:28:06;;;;;;;6.17;3.02;;;;;;;31.44;37.74;99798.58;1721301;82;21604;-60
2022/06/02 10:30:55;;;;;;;4.65;3.02;;;;;;;31.49;37.97;99795.28;1752208;80;21629;-60
2022/06/02 10:33:36;;;;;;;3.52;3.08;;;;;;;31.71;37.62;99791.98;1750933;80;21548;-59
2022/06/02 10:36:27;;;;;;;4.30;2.80;;;;;;;31.83;36.77;99790.89;1754541;80;22166;-60
2022/06/02 10:39:16;;;;;;;5.95;2.80;;;;;;;31.92;35.61;99783.42;1753270;80;21546;-59
2022/06/02 10:42:01;;;;;;;4.30;2.65;;;;;;;31.98;35.52;99773.92;1754366;80;21585;-60
2022/06/02 10:45:02;;;;;;;2.98;2.77;;;;;;;32.03;35.94;99772.01;1754785;80;21601;-60
2022/06/02 10:47:44;;;;;;;3.95;2.85;;;;;;;32.12;35.66;99764.00;1749674;80;20986;-61
2022/06/02 10:50:46;;;;;;;4.53;3.05;;;;;;;32.11;35.49;99753.31;1758217;80;21841;-59
2022/06/02 10:53:46;;;;;;;4.53;2.98;;;;;;;32.11;35.70;99756.03;1751297;80;21064;-59
2022/06/02 10:56:41;;;;;;;4.72;3.37;;;;;;;32.13;36.06;99744.43;1756676;80;20998;-59
2022/06/02 10:59:35;;;;;;;6.75;3.30;;;;;;;32.24;35.89;99740.29;1761866;80;21648;-60
2022/06/02 11:02:33;;;;;;;8.20;3.25;;;;;;;32.28;35.48;99736.94;1697493;82;21507;-59
2022/06/02 11:05:53;;;;;;;4.92;3.25;;;;;;;32.26;35.04;99734.95;1751681;80;21809;-59
2022/06/02 11:08:47;;;;;;;4.00;3.17;;;;;;;32.19;35.03;99730.87;1746400;80;21585;-60
2022/06/02 11:11:42;;;;;;;5.25;3.40;;;;;;;32.20;35.77;99724.38;1702477;83;20983;-63
2022/06/02 11:14:44;;;;;;;6.30;3.35;;;;;;;32.11;35.57;99720.16;1756516;80;21112;-59
2022/06/02 11:17:34;;;;;;;7.67;3.00;;;;;;;32.24;35.22;99720.72;1755152;80;21506;-58
2022/06/02 11:20:24;;;;;;;3.90;2.85;;;;;;;32.36;35.03;99719.59;1756504;80;22229;-59
2022/06/02 11:23:25;;;;;;;4.72;3.08;;;;;;;32.53;34.97;99710.02;1760112;80;21577;-59
2022/06/02 11:26:18;;;;;;;5.55;3.22;;;;;;;32.58;35.25;99701.25;1759924;80;21566;-60
2022/06/02 11:29:12;;;;;;;6.17;4.08;;;;;;;32.70;36.04;99702.81;1749284;80;21445;-60
2022/06/02 11:32:23;;;;;;;8.23;3.05;;;;;;;32.57;35.27;99701.78;1757299;80;21434;-59
2022/06/02 11:35:19;;;;;;;6.05;3.08;;;;;;;32.57;34.61;99694.14;1753484;80;21707;-59
2022/06/02 11:38:03;;;;;;;5.78;3.33;;;;;;;32.68;34.60;99704.91;1740592;80;21072;-60
2022/06/02 11:41:07;;;;;;;6.00;3.15;;;;;;;32.73;34.05;99696.97;1759074;80;21482;-59
2022/06/02 11:44:03;;;;;;;5.30;3.20;;;;;;;32.94;33.94;99690.47;1751892;80;21574;-61
2022/06/02 11:47:04;;;;;;;4.05;3.05;;;;;;;32.93;33.88;99680.64;1750979;80;21578;-59
2022/06/02 11:49:53;;;;;;;4.03;3.08;;;;;;;33.03;33.67;99683.75;1752302;80;22232;-59
2022/06/02 11:52:25;;;;;;;6.92;3.22;;;;;;;33.16;33.76;99676.95;1752864;80;21545;-59
2022/06/02 11:55:27;;;;;;;6.10;3.22;;;;;;;33.17;33.52;99666.89;1754043;80;21601;-61
2022/06/02 11:58:31;;;;;;;6.95;3.80;;;;;;;33.32;33.54;99670.23;1759879;80;21546;-60
2022/06/02 12:01:27;;;;;;;5.67;3.30;;;;;;;33.14;32.72;99658.63;1692484;80;21578;-59
2022/06/02 12:04:22;;;;;;;;;;;;;;;33.00;32.79;99664.27;1702251;82;21788;-60
2022/06/02 12:07:22;;;;;;;6.22;2.45;;;;;;;32.98;33.16;99659.90;1752528;80;20512;-59
2022/06/02 12:10:28;;;;;;;5.97;3.00;;;;;;;32.91;33.14;99659.59;1756172;80;21108;-60
2022/06/02 12:13:10;;;;;;;4.35;2.83;;;;;;;33.22;32.94;99657.56;1757608;80;21565;-59
2022/06/02 12:16:13;;;;;;;6.87;3.20;;;;;;;33.13;33.39;99653.39;1718974;81;21515;-60
2022/06/02 12:19:17;;;;;;;6.67;3.33;;;;;;;33.25;32.90;99657.68;1754277;79;21888;-60
2022/06/02 12:22:18;;;;;;;5.47;3.35;;;;;;;33.29;33.00;99660.28;1755137;80;21623;-59
2022/06/02 12:25:17;;;;;;;3.55;3.08;;;;;;;33.35;33.48;99660.25;1737064;80;21624;-59
2022/06/02 12:28:18;;;;;;;4.03;3.00;;;;;;;33.39;33.55;99661.20;1750272;80;21525;-59
2022/06/02 12:31:09;;;;;;;3.27;2.85;;;;;;;33.44;33.58;99659.50;1751591;80;21532;-59
2022/06/02 12:34:06;;;;;;;4.65;3.17;;;;;;;33.50;33.16;99666.81;1755791;80;21792;-62
2022/06/02 12:36:55;;;;;;;;;;;;;;;33.46;33.50;99669.66;1702235;82;21626;-59
2022/06/02 12:39:39;;;;;;;4.55;3.25;;;;;;;33.32;32.84;99667.51;1683592;83;20518;-59
2022/06/02 12:42:54;;;;;;;6.22;2.98;;;;;;;33.12;34.16;99664.81;1641632;83;21483;-59
2022/06/02 12:45:26;;;;;;;6.72;6.08;;;;;;;33.02;34.44;99660.81;1724928;82;21086;-59
2022/06/02 12:48:05;;;;;;;4.20;3.55;;;;;;;33.02;33.58;99664.90;1753430;80;21906;-59
2022/06/02 12:50:46;;;;;;;8.40;2.87;;;;;;;33.03;33.85;99659.78;1756426;80;21605;-60
2022/06/02 12:53:50;;;;;;;4.62;3.30;;;;;;;32.98;34.06;99655.81;1757668;80;21606;-59
2022/06/02 12:56:28;;;;;;;6.65;3.33;;;;;;;32.86;34.47;99653.41;1754388;80;21033;-61
2022/06/02 12:59:26;;;;;;;8.70;2.90;;;;;;;32.99;34.27;99648.47;1748485;80;21472;-61
2022/06/02 13:02:08;;;;;;;;;;;;;;;32.87;34.87;99636.03;1765050;80;21881;-62
2022/06/02 13:05:03;;;;;;;3.83;3.50;;;;;;;32.88;34.99;99632.25;1751933;80;20499;-62
2022/06/02 13:11:49;;;;;;;3.40;3.10;;;;;;;32.31;36.43;99614.67;1793146;78;23068;-59
2022/06/02 13:14:57;;;;;;;5.40;2.92;;;;;;;33.42;34.07;99607.61;1758287;80;21526;-62
2022/06/02 13:17:47;;;;;;;4.78;3.00;;;;;;;33.79;33.43;99601.09;1757323;80;22002;-62
2022/06/02 13:21:02;;;;;;;3.85;3.22;;;;;;;33.88;32.77;99610.68;1761279;80;21486;-63
2022/06/02 13:23:57;;;;;;;3.45;3.10;;;;;;;33.99;31.99;99599.08;1704215;82;21530;-60
2022/06/02 13:26:48;;;;;;;10.78;3.17;;;;;;;33.98;31.68;99600.12;1693812;82;21050;-60
2022/06/02 13:29:56;;;;;;;4.12;2.70;;;;;;;33.95;31.65;99601.94;1706249;81;21075;-60
2022/06/02 13:32:37;;;;;;;5.10;3.17;;;;;;;33.87;32.09;99603.54;1735725;81;21743;-61
2022/06/02 13:35:38;;;;;;;3.30;2.92;;;;;;;33.79;32.81;99606.00;1697072;83;21497;-62
2022/06/02 13:38:26;;;;;;;3.67;2.80;;;;;;;33.77;32.87;99569.12;1728139;81;20998;-62
2022/06/02 13:41:01;;;;;;;4.10;3.08;;;;;;;34.20;32.48;99597.91;1731207;81;21732;-61
2022/06/02 13:43:52;;;;;;;8.55;3.22;;;;;;;34.38;32.16;99596.29;1706422;82;20959;-63
2022/06/02 13:46:56;;;;;;;4.28;3.15;;;;;;;34.60;32.09;99596.20;1730488;81;21822;-61